createdAt,value
2022-08-26T00:03:46.370Z,7.97
2022-08-26T00:08:50.405Z,8.75
2022-08-26T00:13:53.050Z,8.88
2022-08-26T00:18:56.546Z,8.70
2022-08-26T00:24:00.537Z,9.07
2022-08-26T00:29:03.214Z,9.13
2022-08-26T00:34:09.488Z,8.75
2022-08-26T00:39:15.141Z,9.95
2022-08-26T00:44:18.154Z,8.35
2022-08-26T00:49:23.901Z,9.77
2022-08-26T00:54:31.694Z,9.32
2022-08-26T00:59:34.460Z,8.57
2022-08-26T01:04:38.155Z,11.07
2022-08-26T01:09:42.199Z,10.25
2022-08-26T01:14:46.460Z,10.20
2022-08-26T01:19:52.367Z,9.27
2022-08-26T01:24:56.952Z,8.70
2022-08-26T01:30:01.735Z,9.35
2022-08-26T01:35:05.829Z,9.00
2022-08-26T01:40:15.212Z,13.55
2022-08-26T01:45:21.831Z,8.00
2022-08-26T01:50:30.248Z,15.80
2022-08-26T01:55:35.768Z,17.48
2022-08-26T02:00:39.289Z,14.95
2022-08-26T02:05:42.035Z,19.50
2022-08-26T02:10:47.596Z,17.80
2022-08-26T02:15:50.347Z,21.05
2022-08-26T02:20:54.362Z,19.90
2022-08-26T02:26:03.911Z,24.50
2022-08-26T02:31:08.038Z,20.80
2022-08-26T02:36:13.507Z,25.77
2022-08-26T02:41:19.592Z,25.73
2022-08-26T02:46:29.785Z,28.20
2022-08-26T02:51:32.929Z,27.55
2022-08-26T02:56:37.559Z,25.95
2022-08-26T03:01:41.089Z,27.98
2022-08-26T03:06:43.911Z,45.92
2022-08-26T03:11:57.787Z,40.10
2022-08-26T03:17:00.595Z,39.60
2022-08-26T03:22:03.892Z,37.90
2022-08-26T03:27:08.046Z,35.22
2022-08-26T03:32:10.746Z,24.75
2022-08-26T03:37:13.450Z,41.22
2022-08-26T03:42:17.554Z,38.35
2022-08-26T03:47:24.765Z,43.47
2022-08-26T03:52:27.743Z,41.22
2022-08-26T03:57:32.349Z,39.92
2022-08-26T04:02:35.595Z,36.40
2022-08-26T04:07:39.130Z,46.72
2022-08-26T04:12:43.314Z,28.05
2022-08-26T04:17:47.184Z,38.40
2022-08-26T04:22:49.890Z,46.35
2022-08-26T04:27:54.883Z,45.85
2022-08-26T04:32:57.580Z,35.00
2022-08-26T04:38:00.499Z,45.13
2022-08-26T04:43:05.279Z,35.28
2022-08-26T04:48:08.718Z,44.65
2022-08-26T04:53:13.894Z,33.25
2022-08-26T04:58:19.332Z,23.75
2022-08-26T05:03:22.416Z,28.15
2022-08-26T05:08:25.269Z,26.85
2022-08-26T05:13:29.534Z,43.47
2022-08-26T05:18:32.948Z,46.97
2022-08-26T05:23:36.721Z,46.97
2022-08-26T05:28:41.154Z,33.63
2022-08-26T05:33:46.618Z,32.65
2022-08-26T05:38:49.722Z,43.88
2022-08-26T05:43:53.779Z,40.70
2022-08-26T05:48:56.887Z,32.40
2022-08-26T05:54:00.170Z,32.65
2022-08-26T05:59:05.043Z,43.15
2022-08-26T06:04:08.072Z,34.40
2022-08-26T06:09:11.470Z,43.30
2022-08-26T06:14:15.589Z,42.05
2022-08-26T06:19:19.185Z,35.15
2022-08-26T06:24:39.974Z,37.17
2022-08-26T06:29:44.168Z,33.40
2022-08-26T06:34:47.199Z,54.00
2022-08-26T06:39:51.279Z,34.17
2022-08-26T06:44:55.519Z,40.92
2022-08-26T06:49:58.397Z,45.25
2022-08-26T06:55:01.165Z,49.05
2022-08-26T07:00:07.656Z,40.63
2022-08-26T07:05:11.278Z,57.03
2022-08-26T07:10:14.837Z,47.53
2022-08-26T07:15:19.671Z,48.60
2022-08-26T07:20:30.093Z,55.13
2022-08-26T07:25:32.791Z,52.15
2022-08-26T07:30:40.840Z,53.50
2022-08-26T07:35:44.458Z,52.83
2022-08-26T07:40:47.367Z,50.55
2022-08-26T07:45:51.678Z,52.92
2022-08-26T07:50:54.650Z,57.38
2022-08-26T07:55:58.926Z,55.08
2022-08-26T08:01:03.070Z,62.83
2022-08-26T08:06:08.280Z,54.00
2022-08-26T08:11:12.552Z,52.85
2022-08-26T08:16:16.732Z,57.00
2022-08-26T08:21:22.084Z,48.95
2022-08-26T08:26:27.342Z,54.15
2022-08-26T08:31:55.803Z,51.58
2022-08-26T08:36:55.722Z,49.60
2022-08-26T08:42:10.940Z,45.35
2022-08-26T08:47:19.642Z,46.05
2022-08-26T08:52:30.999Z,47.97
2022-08-26T08:57:42.326Z,46.95
2022-08-26T09:02:53.863Z,54.97
2022-08-26T09:07:59.998Z,54.13
2022-08-26T09:13:05.300Z,47.10
2022-08-26T09:18:13.295Z,58.00
2022-08-26T09:23:16.169Z,62.85
2022-08-26T09:28:23.534Z,65.38
2022-08-26T09:33:30.861Z,60.75
2022-08-26T09:38:35.000Z,61.85
2022-08-26T09:43:37.712Z,55.85
2022-08-26T09:48:43.620Z,54.42
2022-08-26T09:53:52.707Z,53.58
2022-08-26T09:58:57.552Z,44.55
2022-08-26T10:04:07.906Z,46.17
2022-08-26T10:09:14.087Z,43.92
2022-08-26T10:14:20.548Z,41.08
2022-08-26T10:19:29.270Z,43.65
2022-08-26T10:24:54.939Z,33.30
2022-08-26T10:30:03.331Z,32.10
2022-08-26T10:35:10.671Z,26.95
2022-08-26T10:40:16.939Z,24.02
2022-08-26T10:45:22.035Z,19.92
2022-08-26T10:50:32.090Z,16.65
2022-08-26T10:55:38.170Z,18.15
2022-08-26T11:01:01.195Z,17.83
2022-08-26T11:06:22.871Z,21.00
2022-08-26T11:11:52.623Z,27.75
2022-08-26T11:16:56.881Z,25.63
2022-08-26T11:22:06.511Z,33.00
2022-08-26T11:27:12.204Z,31.33
2022-08-26T11:32:26.096Z,36.45
2022-08-26T11:37:34.244Z,32.75
2022-08-26T11:42:39.449Z,33.50
2022-08-26T11:47:42.311Z,32.00
2022-08-26T11:53:01.681Z,32.28
2022-08-26T11:58:05.843Z,40.90
2022-08-26T12:03:09.885Z,34.15
2022-08-26T12:08:16.511Z,29.75
2022-08-26T12:13:23.024Z,26.02
2022-08-26T12:18:29.243Z,29.17
2022-08-26T12:23:42.190Z,40.05
2022-08-26T12:28:48.284Z,35.45
2022-08-26T12:33:51.282Z,35.67
2022-08-26T12:38:58.324Z,32.70
2022-08-26T12:44:01.362Z,27.33
2022-08-26T12:49:04.311Z,25.52
2022-08-26T12:54:15.817Z,39.67
2022-08-26T12:59:24.926Z,37.47
2022-08-26T13:04:38.838Z,42.85
2022-08-26T13:09:43.066Z,39.65
2022-08-26T13:14:46.128Z,33.33
2022-08-26T13:19:48.915Z,33.63
2022-08-26T13:24:55.216Z,29.17
2022-08-26T13:29:59.046Z,29.55
2022-08-26T13:35:05.515Z,26.95
2022-08-26T13:40:12.082Z,28.88
2022-08-26T13:45:14.841Z,29.85
2022-08-26T13:50:17.621Z,29.85
2022-08-26T13:55:21.856Z,25.45
2022-08-26T14:00:24.639Z,25.65
2022-08-26T14:05:27.762Z,25.25
2022-08-26T14:10:31.893Z,22.65
2022-08-26T14:15:35.789Z,22.70
2022-08-26T14:20:39.482Z,19.55
2022-08-26T14:25:43.685Z,18.33
2022-08-26T14:30:49.235Z,18.75
2022-08-26T14:35:51.945Z,16.00
2022-08-26T14:40:56.120Z,14.65
2022-08-26T14:45:58.805Z,14.45
2022-08-26T14:51:01.510Z,14.00
2022-08-26T14:56:05.990Z,14.07
2022-08-26T15:01:08.673Z,13.05
2022-08-26T15:06:11.461Z,11.57
2022-08-26T15:11:18.298Z,12.30
2022-08-26T15:16:21.599Z,11.07
2022-08-26T15:21:24.813Z,8.07
2022-08-26T15:26:29.985Z,8.85
2022-08-26T15:31:33.610Z,12.07
2022-08-26T15:36:37.709Z,9.10
2022-08-26T15:41:42.045Z,15.40
2022-08-26T15:46:44.789Z,14.27
2022-08-26T15:51:50.223Z,9.25
2022-08-26T15:56:54.335Z,11.57
2022-08-26T16:01:57.079Z,11.10
2022-08-26T16:06:59.814Z,11.80
2022-08-26T16:12:04.372Z,7.90
2022-08-26T16:17:07.143Z,7.63
2022-08-26T16:22:09.794Z,10.27
2022-08-26T16:27:14.008Z,7.43
2022-08-26T16:32:16.800Z,8.05
2022-08-26T16:37:19.781Z,12.45
2022-08-26T16:42:23.921Z,9.10
2022-08-26T16:47:27.025Z,8.50
2022-08-26T16:52:30.173Z,8.18
2022-08-26T16:57:37.402Z,8.80
2022-08-26T17:02:40.467Z,8.55
2022-08-26T17:07:43.152Z,11.23
2022-08-26T17:12:47.225Z,8.68
2022-08-26T17:17:49.908Z,6.90
2022-08-26T17:22:54.877Z,7.28
2022-08-26T17:27:59.318Z,10.00
2022-08-26T17:33:02.089Z,6.25
2022-08-26T17:38:13.774Z,5.90
2022-08-26T17:43:18.302Z,8.45
2022-08-26T17:48:20.961Z,5.68
2022-08-26T17:53:24.036Z,7.05
2022-08-26T17:58:28.136Z,5.70
2022-08-26T18:03:31.968Z,6.15
2022-08-26T18:08:34.756Z,6.85
2022-08-26T18:13:47.077Z,5.78
2022-08-26T18:18:53.414Z,4.95
2022-08-26T18:23:56.391Z,8.80
2022-08-26T18:29:00.531Z,8.88
2022-08-26T18:34:03.805Z,7.25
2022-08-26T18:39:07.650Z,6.30
2022-08-26T18:44:13.880Z,8.50
2022-08-26T18:49:18.331Z,7.35
2022-08-26T18:59:30.704Z,9.25
2022-08-26T19:04:33.522Z,7.07
2022-08-26T19:09:36.471Z,5.50
2022-08-26T19:14:40.516Z,4.90
2022-08-26T19:19:43.310Z,7.25
2022-08-26T19:24:48.205Z,6.22
2022-08-26T19:29:52.292Z,5.00
2022-08-26T19:34:55.251Z,5.75
2022-08-26T19:39:57.935Z,11.95
2022-08-26T19:45:25.075Z,3.85
2022-08-26T19:50:29.649Z,4.68
2022-08-26T19:55:33.038Z,12.95
2022-08-26T20:00:39.665Z,8.43
2022-08-26T20:05:42.429Z,3.67
2022-08-26T20:10:46.700Z,4.25
2022-08-26T20:15:50.821Z,6.90
2022-08-26T20:21:10.950Z,7.60
2022-08-26T20:26:13.812Z,9.48
2022-08-26T20:31:19.138Z,6.25
2022-08-26T20:36:23.798Z,8.25
2022-08-26T20:41:27.490Z,6.80
2022-08-26T20:46:31.788Z,7.00
2022-08-26T20:51:35.069Z,7.50
2022-08-26T20:56:38.116Z,5.60
2022-08-26T21:01:42.699Z,5.50
2022-08-26T21:06:52.368Z,10.38
2022-08-26T21:11:55.888Z,12.65
2022-08-26T21:16:59.980Z,5.90
2022-08-26T21:22:02.725Z,6.00
2022-08-26T21:27:05.694Z,6.20
2022-08-26T21:32:09.833Z,3.92
2022-08-26T21:37:16.994Z,7.47
2022-08-26T21:42:19.827Z,6.28
2022-08-26T21:47:24.345Z,7.85
2022-08-26T21:52:27.458Z,7.25
2022-08-26T21:57:31.413Z,6.95
2022-08-26T22:02:36.775Z,4.68
2022-08-26T22:07:39.619Z,11.30
2022-08-26T22:12:42.351Z,8.55
2022-08-26T22:17:46.472Z,11.73
2022-08-26T22:22:49.208Z,11.45
2022-08-26T22:27:52.409Z,13.20
2022-08-26T22:32:56.786Z,21.98
2022-08-26T22:38:00.243Z,12.20
2022-08-26T22:43:03.195Z,16.58
2022-08-26T22:48:07.290Z,17.40
2022-08-26T22:53:10.049Z,21.90
2022-08-26T22:58:13.474Z,18.08
2022-08-26T23:03:18.634Z,18.08
2022-08-26T23:08:21.430Z,13.88
2022-08-26T23:13:24.148Z,15.23
2022-08-26T23:18:28.269Z,16.98
2022-08-26T23:23:31.164Z,15.98
2022-08-26T23:28:34.025Z,13.77
2022-08-26T23:33:55.649Z,12.88
2022-08-26T23:39:01.227Z,10.43
2022-08-26T23:44:05.234Z,9.43
2022-08-26T23:49:09.263Z,11.02
2022-08-26T23:54:12.562Z,8.48
2022-08-26T23:59:15.532Z,9.20
